createdAt,value
2023-05-08T00:01:54.911Z,0.63
2023-05-08T00:06:47.370Z,0.80
2023-05-08T00:11:39.193Z,1.05
2023-05-08T00:16:31.910Z,0.45
2023-05-08T00:21:24.636Z,0.82
2023-05-08T00:31:23.990Z,0.60
2023-05-08T00:36:15.895Z,0.52
2023-05-08T00:41:07.668Z,1.02
2023-05-08T00:46:01.737Z,1.10
2023-05-08T00:50:55.227Z,3.03
2023-05-08T00:55:48.789Z,0.77
2023-05-08T01:00:43.790Z,1.45
2023-05-08T01:05:36.578Z,1.00
2023-05-08T01:10:45.711Z,0.82
2023-05-08T01:15:49.226Z,1.08
2023-05-08T01:20:53.377Z,1.35
2023-05-08T01:31:46.131Z,1.42
2023-05-08T01:37:04.309Z,1.42
2023-05-08T01:42:05.744Z,1.10
2023-05-08T01:46:59.424Z,0.73
2023-05-08T01:52:02.987Z,0.85
2023-05-08T01:56:59.120Z,1.45
2023-05-08T02:01:58.535Z,3.38
2023-05-08T02:06:52.569Z,1.00
2023-05-08T02:11:46.601Z,0.88
2023-05-08T02:16:42.375Z,0.93
2023-05-08T02:21:35.833Z,1.00
2023-05-08T02:26:28.943Z,0.70
2023-05-08T02:31:22.130Z,0.70
2023-05-08T02:36:18.444Z,0.70
2023-05-08T02:41:13.470Z,0.82
2023-05-08T02:46:40.390Z,3.33
2023-05-08T02:51:54.911Z,1.33
2023-05-08T02:57:19.880Z,1.30
2023-05-08T03:02:27.715Z,1.50
2023-05-08T03:07:27.521Z,0.80
2023-05-08T03:12:26.672Z,3.42
2023-05-08T03:17:22.709Z,1.00
2023-05-08T03:22:18.101Z,1.95
2023-05-08T03:27:10.850Z,1.50
2023-05-08T03:32:03.898Z,1.52
2023-05-08T03:36:56.210Z,2.08
2023-05-08T03:41:49.593Z,1.30
2023-05-08T03:46:42.907Z,1.70
2023-05-08T03:51:39.388Z,1.15
2023-05-08T03:56:31.098Z,1.50
2023-05-08T04:38:22.662Z,4.30
2023-05-08T05:05:03.241Z,2.70
2023-05-08T05:09:54.907Z,2.58
2023-05-08T05:14:46.603Z,2.10
2023-05-08T05:19:38.294Z,5.00
2023-05-08T05:24:30.011Z,2.95
2023-05-08T05:29:21.691Z,5.10
2023-05-08T06:00:28.806Z,3.97
2023-05-08T06:05:20.886Z,3.08
2023-05-08T06:10:13.169Z,3.38
2023-05-08T06:35:32.437Z,3.30
2023-05-08T06:40:24.186Z,2.97
2023-05-08T07:42:01.556Z,1.80
2023-05-08T07:46:53.334Z,1.58
2023-05-08T08:43:16.762Z,2.33
2023-05-08T11:22:38.836Z,1.60
2023-05-08T11:33:11.761Z,2.83
2023-05-08T12:20:59.353Z,4.43
2023-05-08T12:26:04.297Z,3.13
2023-05-08T12:41:12.868Z,2.15
2023-05-08T13:38:37.182Z,3.22
2023-05-08T14:24:37.535Z,3.80
2023-05-08T14:34:41.497Z,5.47
2023-05-08T16:33:02.729Z,1.80
2023-05-08T16:53:18.169Z,1.48
2023-05-08T17:18:51.671Z,1.33
2023-05-08T17:39:06.926Z,1.58
2023-05-08T17:59:20.445Z,2.55
2023-05-08T18:19:39.836Z,3.25
2023-05-08T18:51:21.467Z,2.33
2023-05-08T18:56:15.857Z,1.92
2023-05-08T19:11:22.719Z,3.08
2023-05-08T19:21:21.226Z,3.47
2023-05-08T19:26:15.166Z,3.72
2023-05-08T19:46:47.176Z,5.10
2023-05-08T19:51:40.728Z,2.10
2023-05-08T19:56:33.488Z,4.57
2023-05-08T20:01:25.254Z,3.67
2023-05-08T20:06:19.244Z,2.65
2023-05-08T20:11:15.457Z,5.28
2023-05-08T20:16:11.510Z,2.38
2023-05-08T20:21:05.472Z,3.03
2023-05-08T20:26:00.168Z,2.15
2023-05-08T20:30:52.832Z,3.05
2023-05-08T20:51:11.264Z,2.33
2023-05-08T20:56:17.250Z,3.47
2023-05-08T21:01:11.470Z,4.03
2023-05-08T21:11:10.264Z,4.00
2023-05-08T21:21:17.170Z,2.67
2023-05-08T21:31:16.447Z,5.82
2023-05-08T21:36:09.807Z,3.50
2023-05-08T21:41:11.133Z,3.00
2023-05-08T21:46:07.897Z,5.57
2023-05-08T21:51:05.822Z,5.70
2023-05-08T22:01:05.368Z,5.43
2023-05-08T22:05:57.793Z,4.60
2023-05-08T22:10:52.345Z,3.25
2023-05-08T22:15:47.407Z,5.40
2023-05-08T22:20:39.341Z,2.95
2023-05-08T22:30:36.978Z,3.80
2023-05-08T22:35:28.853Z,4.60
2023-05-08T22:40:22.076Z,3.63
2023-05-08T22:45:15.033Z,3.70
2023-05-08T22:50:09.072Z,3.78
2023-05-08T23:00:14.767Z,3.28
2023-05-08T23:05:08.396Z,5.00
2023-05-08T23:36:33.965Z,5.45
2023-05-08T23:41:26.125Z,4.82
2023-05-08T23:46:17.833Z,4.90
2023-05-08T23:51:09.608Z,7.40
2023-05-08T23:56:01.364Z,5.60
